sensor_id;sensor_type;location;lat;lon;timestamp;P1;durP1;ratioP1;P2;durP2;ratioP2
52724;SDS011;38621;52.830;6.914;2024-03-06T00:01:50;50.72;;;48.55;;
52724;SDS011;38621;52.830;6.914;2024-03-06T00:04:16;57.22;;;55.03;;
52724;SDS011;38621;52.830;6.914;2024-03-06T00:06:42;52.35;;;50.10;;
52724;SDS011;38621;52.830;6.914;2024-03-06T00:09:07;48.33;;;46.25;;
52724;SDS011;38621;52.830;6.914;2024-03-06T00:11:33;47.20;;;45.20;;
52724;SDS011;38621;52.830;6.914;2024-03-06T00:14:02;48.13;;;45.85;;
52724;SDS011;38621;52.830;6.914;2024-03-06T00:16:28;48.80;;;46.53;;
52724;SDS011;38621;52.830;6.914;2024-03-06T00:18:54;49.92;;;47.80;;
52724;SDS011;38621;52.830;6.914;2024-03-06T00:21:19;57.28;;;54.85;;
52724;SDS011;38621;52.830;6.914;2024-03-06T00:23:45;69.72;;;66.88;;
52724;SDS011;38621;52.830;6.914;2024-03-06T00:26:12;65.65;;;62.97;;
52724;SDS011;38621;52.830;6.914;2024-03-06T00:28:38;65.55;;;62.83;;
52724;SDS011;38621;52.830;6.914;2024-03-06T00:31:25;64.47;;;61.83;;
52724;SDS011;38621;52.830;6.914;2024-03-06T00:33:55;68.88;;;66.05;;
52724;SDS011;38621;52.830;6.914;2024-03-06T00:36:31;58.38;;;56.03;;
52724;SDS011;38621;52.830;6.914;2024-03-06T00:39:08;66.28;;;63.50;;
52724;SDS011;38621;52.830;6.914;2024-03-06T00:41:35;66.50;;;63.60;;
52724;SDS011;38621;52.830;6.914;2024-03-06T00:44:01;64.00;;;61.20;;
52724;SDS011;38621;52.830;6.914;2024-03-06T00:46:27;77.28;;;74.03;;
52724;SDS011;38621;52.830;6.914;2024-03-06T00:48:53;63.30;;;60.33;;
52724;SDS011;38621;52.830;6.914;2024-03-06T00:51:18;55.72;;;53.45;;
52724;SDS011;38621;52.830;6.914;2024-03-06T00:53:44;56.40;;;53.60;;
52724;SDS011;38621;52.830;6.914;2024-03-06T00:56:10;57.00;;;54.33;;
52724;SDS011;38621;52.830;6.914;2024-03-06T00:58:36;69.45;;;66.80;;
52724;SDS011;38621;52.830;6.914;2024-03-06T01:01:02;57.55;;;55.15;;
52724;SDS011;38621;52.830;6.914;2024-03-06T01:03:27;52.05;;;49.80;;
52724;SDS011;38621;52.830;6.914;2024-03-06T01:05:53;62.40;;;59.95;;
52724;SDS011;38621;52.830;6.914;2024-03-06T01:08:21;66.85;;;63.97;;
52724;SDS011;38621;52.830;6.914;2024-03-06T01:10:50;61.80;;;59.17;;
52724;SDS011;38621;52.830;6.914;2024-03-06T01:13:17;67.05;;;64.22;;
52724;SDS011;38621;52.830;6.914;2024-03-06T01:15:43;72.82;;;69.85;;
52724;SDS011;38621;52.830;6.914;2024-03-06T01:18:09;72.97;;;69.90;;
52724;SDS011;38621;52.830;6.914;2024-03-06T01:20:43;69.47;;;66.28;;
52724;SDS011;38621;52.830;6.914;2024-03-06T01:23:18;69.72;;;66.93;;
52724;SDS011;38621;52.830;6.914;2024-03-06T01:25:44;59.42;;;57.05;;
52724;SDS011;38621;52.830;6.914;2024-03-06T01:28:09;63.40;;;60.83;;
52724;SDS011;38621;52.830;6.914;2024-03-06T01:30:36;63.78;;;61.15;;
52724;SDS011;38621;52.830;6.914;2024-03-06T01:33:02;63.80;;;61.15;;
52724;SDS011;38621;52.830;6.914;2024-03-06T01:35:28;78.75;;;75.40;;
52724;SDS011;38621;52.830;6.914;2024-03-06T01:37:53;71.40;;;68.47;;
52724;SDS011;38621;52.830;6.914;2024-03-06T01:40:19;58.10;;;55.42;;
52724;SDS011;38621;52.830;6.914;2024-03-06T01:43:05;54.30;;;51.92;;
52724;SDS011;38621;52.830;6.914;2024-03-06T01:45:30;65.20;;;62.28;;
52724;SDS011;38621;52.830;6.914;2024-03-06T01:47:59;63.38;;;60.75;;
52724;SDS011;38621;52.830;6.914;2024-03-06T01:50:28;62.25;;;59.42;;
52724;SDS011;38621;52.830;6.914;2024-03-06T01:53:00;62.75;;;60.03;;
52724;SDS011;38621;52.830;6.914;2024-03-06T01:55:27;51.72;;;49.45;;
52724;SDS011;38621;52.830;6.914;2024-03-06T01:57:53;61.55;;;58.90;;
52724;SDS011;38621;52.830;6.914;2024-03-06T02:00:20;61.35;;;58.78;;
52724;SDS011;38621;52.830;6.914;2024-03-06T02:02:48;54.95;;;52.60;;
52724;SDS011;38621;52.830;6.914;2024-03-06T02:05:13;62.55;;;59.75;;
52724;SDS011;38621;52.830;6.914;2024-03-06T02:07:42;52.25;;;50.03;;
52724;SDS011;38621;52.830;6.914;2024-03-06T02:10:09;65.57;;;62.88;;
52724;SDS011;38621;52.830;6.914;2024-03-06T02:12:37;59.28;;;56.88;;
52724;SDS011;38621;52.830;6.914;2024-03-06T02:15:03;53.92;;;51.78;;
52724;SDS011;38621;52.830;6.914;2024-03-06T02:17:29;49.47;;;47.42;;
52724;SDS011;38621;52.830;6.914;2024-03-06T02:19:57;69.45;;;66.82;;
52724;SDS011;38621;52.830;6.914;2024-03-06T02:22:26;74.32;;;71.20;;
52724;SDS011;38621;52.830;6.914;2024-03-06T02:24:57;64.68;;;62.03;;
52724;SDS011;38621;52.830;6.914;2024-03-06T02:27:23;68.53;;;65.65;;
52724;SDS011;38621;52.830;6.914;2024-03-06T02:29:48;69.65;;;66.75;;
52724;SDS011;38621;52.830;6.914;2024-03-06T02:32:14;69.05;;;66.10;;
52724;SDS011;38621;52.830;6.914;2024-03-06T02:34:46;68.55;;;65.45;;
52724;SDS011;38621;52.830;6.914;2024-03-06T02:37:17;65.93;;;63.22;;
52724;SDS011;38621;52.830;6.914;2024-03-06T02:39:43;59.22;;;56.70;;
52724;SDS011;38621;52.830;6.914;2024-03-06T02:42:09;56.75;;;54.47;;
52724;SDS011;38621;52.830;6.914;2024-03-06T02:44:35;50.30;;;47.90;;
52724;SDS011;38621;52.830;6.914;2024-03-06T02:47:00;66.57;;;64.00;;
52724;SDS011;38621;52.830;6.914;2024-03-06T02:49:26;60.75;;;58.10;;
52724;SDS011;38621;52.830;6.914;2024-03-06T02:51:53;78.10;;;75.15;;
52724;SDS011;38621;52.830;6.914;2024-03-06T02:54:19;71.80;;;68.70;;
52724;SDS011;38621;52.830;6.914;2024-03-06T02:56:45;64.22;;;61.58;;
52724;SDS011;38621;52.830;6.914;2024-03-06T02:59:11;70.30;;;67.55;;
52724;SDS011;38621;52.830;6.914;2024-03-06T03:01:36;71.97;;;69.10;;
52724;SDS011;38621;52.830;6.914;2024-03-06T03:04:03;60.47;;;57.63;;
52724;SDS011;38621;52.830;6.914;2024-03-06T03:06:29;63.90;;;61.35;;
52724;SDS011;38621;52.830;6.914;2024-03-06T03:08:55;73.30;;;70.05;;
52724;SDS011;38621;52.830;6.914;2024-03-06T03:11:22;79.15;;;75.85;;
52724;SDS011;38621;52.830;6.914;2024-03-06T03:13:50;70.97;;;67.90;;
52724;SDS011;38621;52.830;6.914;2024-03-06T03:16:18;69.55;;;66.63;;
52724;SDS011;38621;52.830;6.914;2024-03-06T03:18:47;77.63;;;74.57;;
52724;SDS011;38621;52.830;6.914;2024-03-06T03:21:16;81.45;;;78.20;;
52724;SDS011;38621;52.830;6.914;2024-03-06T03:23:41;79.50;;;76.43;;
52724;SDS011;38621;52.830;6.914;2024-03-06T03:26:08;69.95;;;66.97;;
52724;SDS011;38621;52.830;6.914;2024-03-06T03:28:39;69.53;;;66.70;;
52724;SDS011;38621;52.830;6.914;2024-03-06T03:31:08;86.07;;;82.63;;
52724;SDS011;38621;52.830;6.914;2024-03-06T03:33:39;82.90;;;79.75;;
52724;SDS011;38621;52.830;6.914;2024-03-06T03:36:05;87.60;;;84.38;;
52724;SDS011;38621;52.830;6.914;2024-03-06T03:38:37;81.63;;;77.60;;
52724;SDS011;38621;52.830;6.914;2024-03-06T03:41:09;79.97;;;76.75;;
52724;SDS011;38621;52.830;6.914;2024-03-06T03:43:38;79.15;;;75.90;;
52724;SDS011;38621;52.830;6.914;2024-03-06T03:46:04;87.28;;;84.00;;
52724;SDS011;38621;52.830;6.914;2024-03-06T03:48:31;87.72;;;84.35;;
52724;SDS011;38621;52.830;6.914;2024-03-06T03:51:01;92.93;;;89.45;;
52724;SDS011;38621;52.830;6.914;2024-03-06T03:53:29;102.30;;;98.25;;
52724;SDS011;38621;52.830;6.914;2024-03-06T03:55:55;94.13;;;90.53;;
52724;SDS011;38621;52.830;6.914;2024-03-06T03:58:21;89.90;;;86.45;;
52724;SDS011;38621;52.830;6.914;2024-03-06T04:00:46;82.00;;;78.68;;
52724;SDS011;38621;52.830;6.914;2024-03-06T04:03:12;83.55;;;79.90;;
52724;SDS011;38621;52.830;6.914;2024-03-06T04:05:38;90.80;;;87.45;;
52724;SDS011;38621;52.830;6.914;2024-03-06T04:08:04;85.75;;;82.40;;
52724;SDS011;38621;52.830;6.914;2024-03-06T04:10:31;94.40;;;90.80;;
52724;SDS011;38621;52.830;6.914;2024-03-06T04:12:58;94.65;;;90.60;;
52724;SDS011;38621;52.830;6.914;2024-03-06T04:15:25;95.45;;;91.80;;
52724;SDS011;38621;52.830;6.914;2024-03-06T04:17:50;90.72;;;87.25;;
52724;SDS011;38621;52.830;6.914;2024-03-06T04:20:17;104.20;;;100.28;;
52724;SDS011;38621;52.830;6.914;2024-03-06T04:22:43;96.40;;;92.85;;
52724;SDS011;38621;52.830;6.914;2024-03-06T04:25:11;90.10;;;86.53;;
52724;SDS011;38621;52.830;6.914;2024-03-06T04:27:37;94.57;;;90.68;;
52724;SDS011;38621;52.830;6.914;2024-03-06T04:30:05;89.53;;;85.63;;
52724;SDS011;38621;52.830;6.914;2024-03-06T04:32:31;90.82;;;87.18;;
52724;SDS011;38621;52.830;6.914;2024-03-06T04:34:57;89.40;;;86.00;;
52724;SDS011;38621;52.830;6.914;2024-03-06T04:37:32;93.78;;;90.32;;
52724;SDS011;38621;52.830;6.914;2024-03-06T04:39:58;101.60;;;97.80;;
52724;SDS011;38621;52.830;6.914;2024-03-06T04:42:24;102.88;;;98.93;;
52724;SDS011;38621;52.830;6.914;2024-03-06T04:44:52;99.80;;;95.80;;
52724;SDS011;38621;52.830;6.914;2024-03-06T04:47:18;102.57;;;98.65;;
52724;SDS011;38621;52.830;6.914;2024-03-06T04:49:44;107.07;;;102.88;;
52724;SDS011;38621;52.830;6.914;2024-03-06T04:52:10;98.88;;;94.70;;
52724;SDS011;38621;52.830;6.914;2024-03-06T04:54:35;96.55;;;92.68;;
52724;SDS011;38621;52.830;6.914;2024-03-06T04:57:01;104.95;;;100.95;;
52724;SDS011;38621;52.830;6.914;2024-03-06T04:59:27;102.72;;;98.82;;
52724;SDS011;38621;52.830;6.914;2024-03-06T05:01:53;103.00;;;99.13;;
52724;SDS011;38621;52.830;6.914;2024-03-06T05:04:19;110.97;;;106.82;;
52724;SDS011;38621;52.830;6.914;2024-03-06T05:06:44;91.20;;;87.78;;
52724;SDS011;38621;52.830;6.914;2024-03-06T05:09:10;107.72;;;103.78;;
52724;SDS011;38621;52.830;6.914;2024-03-06T05:11:39;106.65;;;102.70;;
52724;SDS011;38621;52.830;6.914;2024-03-06T05:14:05;110.72;;;106.45;;
52724;SDS011;38621;52.830;6.914;2024-03-06T05:16:31;124.97;;;120.38;;
52724;SDS011;38621;52.830;6.914;2024-03-06T05:18:56;111.97;;;107.97;;
52724;SDS011;38621;52.830;6.914;2024-03-06T05:21:22;116.80;;;112.47;;
52724;SDS011;38621;52.830;6.914;2024-03-06T05:23:48;105.60;;;101.55;;
52724;SDS011;38621;52.830;6.914;2024-03-06T05:26:14;117.10;;;112.75;;
52724;SDS011;38621;52.830;6.914;2024-03-06T05:28:41;149.10;;;143.30;;
52724;SDS011;38621;52.830;6.914;2024-03-06T05:31:17;112.28;;;107.95;;
52724;SDS011;38621;52.830;6.914;2024-03-06T05:33:51;113.38;;;108.88;;
52724;SDS011;38621;52.830;6.914;2024-03-06T05:36:17;131.50;;;126.80;;
52724;SDS011;38621;52.830;6.914;2024-03-06T05:38:44;109.85;;;105.53;;
52724;SDS011;38621;52.830;6.914;2024-03-06T05:41:13;122.25;;;117.75;;
52724;SDS011;38621;52.830;6.914;2024-03-06T05:43:39;104.78;;;100.93;;
52724;SDS011;38621;52.830;6.914;2024-03-06T05:46:06;131.50;;;126.70;;
52724;SDS011;38621;52.830;6.914;2024-03-06T05:48:32;113.78;;;109.53;;
52724;SDS011;38621;52.830;6.914;2024-03-06T05:51:11;119.20;;;114.75;;
52724;SDS011;38621;52.830;6.914;2024-03-06T05:53:37;134.15;;;129.02;;
52724;SDS011;38621;52.830;6.914;2024-03-06T05:56:07;126.78;;;122.05;;
52724;SDS011;38621;52.830;6.914;2024-03-06T05:58:33;143.82;;;137.95;;
52724;SDS011;38621;52.830;6.914;2024-03-06T06:00:59;113.88;;;108.38;;
52724;SDS011;38621;52.830;6.914;2024-03-06T06:03:29;114.88;;;110.55;;
52724;SDS011;38621;52.830;6.914;2024-03-06T06:06:06;106.55;;;102.30;;
52724;SDS011;38621;52.830;6.914;2024-03-06T06:08:33;113.95;;;109.47;;
52724;SDS011;38621;52.830;6.914;2024-03-06T06:11:00;111.93;;;107.53;;
52724;SDS011;38621;52.830;6.914;2024-03-06T06:13:28;132.68;;;127.68;;
52724;SDS011;38621;52.830;6.914;2024-03-06T06:15:54;122.35;;;117.57;;
52724;SDS011;38621;52.830;6.914;2024-03-06T06:18:22;112.72;;;108.38;;
52724;SDS011;38621;52.830;6.914;2024-03-06T06:20:48;116.60;;;111.80;;
52724;SDS011;38621;52.830;6.914;2024-03-06T06:23:14;111.28;;;106.78;;
52724;SDS011;38621;52.830;6.914;2024-03-06T06:25:42;122.15;;;117.18;;
52724;SDS011;38621;52.830;6.914;2024-03-06T06:28:08;106.53;;;102.28;;
52724;SDS011;38621;52.830;6.914;2024-03-06T06:30:35;106.32;;;102.22;;
52724;SDS011;38621;52.830;6.914;2024-03-06T06:33:01;113.82;;;109.43;;
52724;SDS011;38621;52.830;6.914;2024-03-06T06:35:27;113.03;;;108.75;;
52724;SDS011;38621;52.830;6.914;2024-03-06T06:37:52;116.38;;;112.00;;
52724;SDS011;38621;52.830;6.914;2024-03-06T06:40:18;122.07;;;117.30;;
52724;SDS011;38621;52.830;6.914;2024-03-06T06:42:45;111.60;;;107.43;;
52724;SDS011;38621;52.830;6.914;2024-03-06T06:45:14;118.10;;;113.53;;
52724;SDS011;38621;52.830;6.914;2024-03-06T06:47:41;114.05;;;109.72;;
52724;SDS011;38621;52.830;6.914;2024-03-06T06:50:07;123.05;;;117.90;;
52724;SDS011;38621;52.830;6.914;2024-03-06T06:52:34;121.90;;;117.30;;
52724;SDS011;38621;52.830;6.914;2024-03-06T06:55:00;135.00;;;129.82;;
52724;SDS011;38621;52.830;6.914;2024-03-06T06:57:26;120.43;;;115.88;;
52724;SDS011;38621;52.830;6.914;2024-03-06T06:59:52;99.85;;;95.90;;
52724;SDS011;38621;52.830;6.914;2024-03-06T07:02:18;110.72;;;106.68;;
52724;SDS011;38621;52.830;6.914;2024-03-06T07:04:44;118.60;;;114.13;;
52724;SDS011;38621;52.830;6.914;2024-03-06T07:07:10;125.70;;;120.93;;
52724;SDS011;38621;52.830;6.914;2024-03-06T07:09:36;125.55;;;120.88;;
52724;SDS011;38621;52.830;6.914;2024-03-06T07:12:02;136.98;;;131.80;;
52724;SDS011;38621;52.830;6.914;2024-03-06T07:14:28;129.90;;;125.05;;
52724;SDS011;38621;52.830;6.914;2024-03-06T07:16:53;105.68;;;101.50;;
52724;SDS011;38621;52.830;6.914;2024-03-06T07:19:19;98.45;;;94.65;;
52724;SDS011;38621;52.830;6.914;2024-03-06T07:21:45;109.47;;;105.35;;
52724;SDS011;38621;52.830;6.914;2024-03-06T07:24:11;152.77;;;146.98;;
52724;SDS011;38621;52.830;6.914;2024-03-06T07:26:36;109.22;;;105.13;;
52724;SDS011;38621;52.830;6.914;2024-03-06T07:29:02;113.45;;;109.18;;
52724;SDS011;38621;52.830;6.914;2024-03-06T07:31:28;105.05;;;100.78;;
52724;SDS011;38621;52.830;6.914;2024-03-06T07:33:54;99.60;;;95.57;;
52724;SDS011;38621;52.830;6.914;2024-03-06T07:36:20;116.38;;;111.57;;
52724;SDS011;38621;52.830;6.914;2024-03-06T07:38:47;125.15;;;120.38;;
52724;SDS011;38621;52.830;6.914;2024-03-06T07:41:12;132.38;;;127.15;;
52724;SDS011;38621;52.830;6.914;2024-03-06T07:43:38;133.75;;;128.65;;
52724;SDS011;38621;52.830;6.914;2024-03-06T07:46:04;117.93;;;113.57;;
52724;SDS011;38621;52.830;6.914;2024-03-06T07:48:41;121.28;;;116.63;;
52724;SDS011;38621;52.830;6.914;2024-03-06T07:51:09;118.05;;;113.20;;
52724;SDS011;38621;52.830;6.914;2024-03-06T07:53:35;105.32;;;100.93;;
52724;SDS011;38621;52.830;6.914;2024-03-06T07:56:01;91.13;;;87.60;;
52724;SDS011;38621;52.830;6.914;2024-03-06T07:58:28;112.22;;;107.38;;
52724;SDS011;38621;52.830;6.914;2024-03-06T08:00:53;120.78;;;116.15;;
52724;SDS011;38621;52.830;6.914;2024-03-06T08:03:21;95.70;;;92.20;;
52724;SDS011;38621;52.830;6.914;2024-03-06T08:05:50;93.45;;;89.82;;
52724;SDS011;38621;52.830;6.914;2024-03-06T08:08:17;101.38;;;97.45;;
52724;SDS011;38621;52.830;6.914;2024-03-06T08:10:43;111.57;;;107.30;;
52724;SDS011;38621;52.830;6.914;2024-03-06T08:13:10;101.22;;;97.20;;
52724;SDS011;38621;52.830;6.914;2024-03-06T08:15:36;91.45;;;87.68;;
52724;SDS011;38621;52.830;6.914;2024-03-06T08:18:02;97.10;;;93.18;;
52724;SDS011;38621;52.830;6.914;2024-03-06T08:20:28;94.20;;;90.60;;
52724;SDS011;38621;52.830;6.914;2024-03-06T08:22:55;89.97;;;86.40;;
52724;SDS011;38621;52.830;6.914;2024-03-06T08:25:21;101.28;;;97.40;;
52724;SDS011;38621;52.830;6.914;2024-03-06T08:27:52;98.95;;;95.00;;
52724;SDS011;38621;52.830;6.914;2024-03-06T08:30:17;95.85;;;92.13;;
52724;SDS011;38621;52.830;6.914;2024-03-06T08:32:43;107.03;;;102.72;;
52724;SDS011;38621;52.830;6.914;2024-03-06T08:35:10;91.35;;;87.55;;
52724;SDS011;38621;52.830;6.914;2024-03-06T08:37:42;95.45;;;91.35;;
52724;SDS011;38621;52.830;6.914;2024-03-06T08:40:08;101.18;;;97.25;;
52724;SDS011;38621;52.830;6.914;2024-03-06T08:42:41;106.72;;;102.57;;
52724;SDS011;38621;52.830;6.914;2024-03-06T08:45:09;91.35;;;87.60;;
52724;SDS011;38621;52.830;6.914;2024-03-06T08:47:36;100.43;;;96.03;;
52724;SDS011;38621;52.830;6.914;2024-03-06T08:50:02;68.15;;;65.20;;
52724;SDS011;38621;52.830;6.914;2024-03-06T08:52:28;72.82;;;69.47;;
52724;SDS011;38621;52.830;6.914;2024-03-06T08:54:59;62.42;;;59.50;;
52724;SDS011;38621;52.830;6.914;2024-03-06T08:58:45;76.20;;;73.00;;
52724;SDS011;38621;52.830;6.914;2024-03-06T09:01:11;73.68;;;70.47;;
52724;SDS011;38621;52.830;6.914;2024-03-06T09:03:37;70.78;;;67.68;;
52724;SDS011;38621;52.830;6.914;2024-03-06T09:06:03;63.85;;;60.80;;
52724;SDS011;38621;52.830;6.914;2024-03-06T09:08:29;68.82;;;65.50;;
52724;SDS011;38621;52.830;6.914;2024-03-06T09:10:58;70.30;;;67.03;;
52724;SDS011;38621;52.830;6.914;2024-03-06T09:13:25;68.10;;;64.88;;
52724;SDS011;38621;52.830;6.914;2024-03-06T09:15:54;77.80;;;74.47;;
52724;SDS011;38621;52.830;6.914;2024-03-06T09:18:26;74.70;;;71.40;;
52724;SDS011;38621;52.830;6.914;2024-03-06T09:20:53;62.42;;;59.63;;
52724;SDS011;38621;52.830;6.914;2024-03-06T09:23:18;61.85;;;59.08;;
52724;SDS011;38621;52.830;6.914;2024-03-06T09:25:44;62.17;;;59.17;;
52724;SDS011;38621;52.830;6.914;2024-03-06T09:28:10;66.03;;;62.83;;
52724;SDS011;38621;52.830;6.914;2024-03-06T09:30:36;67.68;;;64.20;;
52724;SDS011;38621;52.830;6.914;2024-03-06T09:33:02;69.43;;;66.28;;
52724;SDS011;38621;52.830;6.914;2024-03-06T09:35:27;63.28;;;60.10;;
52724;SDS011;38621;52.830;6.914;2024-03-06T09:37:53;61.45;;;58.35;;
52724;SDS011;38621;52.830;6.914;2024-03-06T09:40:22;64.05;;;60.97;;
52724;SDS011;38621;52.830;6.914;2024-03-06T09:43:15;64.00;;;61.00;;
52724;SDS011;38621;52.830;6.914;2024-03-06T09:45:42;63.55;;;60.33;;
52724;SDS011;38621;52.830;6.914;2024-03-06T09:48:13;68.32;;;65.00;;
52724;SDS011;38621;52.830;6.914;2024-03-06T09:50:39;59.95;;;56.75;;
52724;SDS011;38621;52.830;6.914;2024-03-06T09:53:10;74.38;;;70.97;;
52724;SDS011;38621;52.830;6.914;2024-03-06T09:55:40;72.05;;;68.50;;
52724;SDS011;38621;52.830;6.914;2024-03-06T09:58:07;73.38;;;69.68;;
52724;SDS011;38621;52.830;6.914;2024-03-06T10:00:36;77.07;;;73.32;;
52724;SDS011;38621;52.830;6.914;2024-03-06T10:03:03;57.75;;;54.65;;
52724;SDS011;38621;52.830;6.914;2024-03-06T10:05:33;70.57;;;67.35;;
52724;SDS011;38621;52.830;6.914;2024-03-06T10:08:02;66.68;;;63.55;;
52724;SDS011;38621;52.830;6.914;2024-03-06T10:10:29;66.38;;;62.80;;
52724;SDS011;38621;52.830;6.914;2024-03-06T10:12:55;57.80;;;54.60;;
52724;SDS011;38621;52.830;6.914;2024-03-06T10:15:28;64.55;;;61.30;;
52724;SDS011;38621;52.830;6.914;2024-03-06T10:18:15;64.93;;;61.67;;
52724;SDS011;38621;52.830;6.914;2024-03-06T10:20:43;63.33;;;60.13;;
52724;SDS011;38621;52.830;6.914;2024-03-06T10:23:57;74.40;;;70.85;;
52724;SDS011;38621;52.830;6.914;2024-03-06T10:26:24;52.15;;;49.45;;
52724;SDS011;38621;52.830;6.914;2024-03-06T10:28:50;60.30;;;57.03;;
52724;SDS011;38621;52.830;6.914;2024-03-06T10:31:26;64.90;;;61.60;;
52724;SDS011;38621;52.830;6.914;2024-03-06T10:33:53;63.15;;;59.80;;
52724;SDS011;38621;52.830;6.914;2024-03-06T10:36:18;59.25;;;55.88;;
52724;SDS011;38621;52.830;6.914;2024-03-06T10:38:44;62.67;;;59.30;;
52724;SDS011;38621;52.830;6.914;2024-03-06T10:41:14;60.55;;;57.33;;
52724;SDS011;38621;52.830;6.914;2024-03-06T10:43:40;64.47;;;60.97;;
52724;SDS011;38621;52.830;6.914;2024-03-06T10:46:10;59.47;;;56.42;;
52724;SDS011;38621;52.830;6.914;2024-03-06T10:48:37;72.38;;;68.95;;
52724;SDS011;38621;52.830;6.914;2024-03-06T10:51:04;61.38;;;58.08;;
52724;SDS011;38621;52.830;6.914;2024-03-06T10:53:32;64.32;;;61.03;;
52724;SDS011;38621;52.830;6.914;2024-03-06T10:56:01;56.10;;;53.22;;
52724;SDS011;38621;52.830;6.914;2024-03-06T10:58:28;64.30;;;60.90;;
52724;SDS011;38621;52.830;6.914;2024-03-06T11:00:55;60.33;;;57.13;;
52724;SDS011;38621;52.830;6.914;2024-03-06T11:03:23;63.72;;;60.13;;
52724;SDS011;38621;52.830;6.914;2024-03-06T11:05:51;60.92;;;57.85;;
52724;SDS011;38621;52.830;6.914;2024-03-06T11:08:16;64.50;;;60.65;;
52724;SDS011;38621;52.830;6.914;2024-03-06T11:10:43;59.78;;;56.58;;
52724;SDS011;38621;52.830;6.914;2024-03-06T11:13:22;58.47;;;55.28;;
52724;SDS011;38621;52.830;6.914;2024-03-06T11:15:51;62.90;;;59.30;;
52724;SDS011;38621;52.830;6.914;2024-03-06T11:21:29;66.90;;;62.83;;
52724;SDS011;38621;52.830;6.914;2024-03-06T11:32:59;68.88;;;65.03;;
52724;SDS011;38621;52.830;6.914;2024-03-06T11:35:29;62.53;;;59.13;;
52724;SDS011;38621;52.830;6.914;2024-03-06T11:37:55;61.30;;;57.78;;
52724;SDS011;38621;52.830;6.914;2024-03-06T11:40:24;64.35;;;60.95;;
52724;SDS011;38621;52.830;6.914;2024-03-06T11:42:50;63.60;;;60.38;;
52724;SDS011;38621;52.830;6.914;2024-03-06T11:45:17;67.78;;;64.05;;
52724;SDS011;38621;52.830;6.914;2024-03-06T11:48:00;64.75;;;61.08;;
52724;SDS011;38621;52.830;6.914;2024-03-06T11:50:27;60.92;;;57.38;;
52724;SDS011;38621;52.830;6.914;2024-03-06T11:52:55;62.97;;;59.38;;
52724;SDS011;38621;52.830;6.914;2024-03-06T11:55:21;61.28;;;58.08;;
52724;SDS011;38621;52.830;6.914;2024-03-06T11:57:47;64.43;;;61.10;;
52724;SDS011;38621;52.830;6.914;2024-03-06T12:00:13;62.90;;;59.45;;
52724;SDS011;38621;52.830;6.914;2024-03-06T12:02:40;62.63;;;59.15;;
52724;SDS011;38621;52.830;6.914;2024-03-06T12:05:07;60.65;;;57.33;;
52724;SDS011;38621;52.830;6.914;2024-03-06T12:07:44;59.33;;;56.00;;
52724;SDS011;38621;52.830;6.914;2024-03-06T12:10:11;59.88;;;56.78;;
52724;SDS011;38621;52.830;6.914;2024-03-06T12:12:37;59.33;;;56.25;;
52724;SDS011;38621;52.830;6.914;2024-03-06T12:15:03;59.83;;;56.40;;
52724;SDS011;38621;52.830;6.914;2024-03-06T12:17:29;64.68;;;61.30;;
52724;SDS011;38621;52.830;6.914;2024-03-06T12:19:55;62.67;;;59.17;;
52724;SDS011;38621;52.830;6.914;2024-03-06T12:22:24;58.08;;;54.40;;
52724;SDS011;38621;52.830;6.914;2024-03-06T12:24:58;61.72;;;57.95;;
52724;SDS011;38621;52.830;6.914;2024-03-06T12:27:25;57.03;;;53.63;;
52724;SDS011;38621;52.830;6.914;2024-03-06T12:29:52;64.05;;;60.72;;
52724;SDS011;38621;52.830;6.914;2024-03-06T12:32:18;58.63;;;55.17;;
52724;SDS011;38621;52.830;6.914;2024-03-06T12:34:44;56.72;;;53.72;;
52724;SDS011;38621;52.830;6.914;2024-03-06T12:37:20;64.57;;;61.20;;
52724;SDS011;38621;52.830;6.914;2024-03-06T12:39:55;60.92;;;56.90;;
52724;SDS011;38621;52.830;6.914;2024-03-06T12:42:21;58.10;;;55.00;;
52724;SDS011;38621;52.830;6.914;2024-03-06T12:44:46;69.68;;;65.68;;
52724;SDS011;38621;52.830;6.914;2024-03-06T12:47:13;51.88;;;48.78;;
52724;SDS011;38621;52.830;6.914;2024-03-06T12:49:39;55.72;;;52.38;;
52724;SDS011;38621;52.830;6.914;2024-03-06T12:52:04;55.20;;;51.80;;
52724;SDS011;38621;52.830;6.914;2024-03-06T12:54:30;55.30;;;52.20;;
52724;SDS011;38621;52.830;6.914;2024-03-06T12:56:56;72.68;;;68.88;;
52724;SDS011;38621;52.830;6.914;2024-03-06T12:59:22;64.13;;;60.72;;
52724;SDS011;38621;52.830;6.914;2024-03-06T13:01:47;58.95;;;55.50;;
52724;SDS011;38621;52.830;6.914;2024-03-06T13:04:13;55.92;;;52.67;;
52724;SDS011;38621;52.830;6.914;2024-03-06T13:06:39;66.78;;;63.05;;
52724;SDS011;38621;52.830;6.914;2024-03-06T13:09:07;64.88;;;61.55;;
52724;SDS011;38621;52.830;6.914;2024-03-06T13:11:33;59.00;;;55.83;;
52724;SDS011;38621;52.830;6.914;2024-03-06T13:13:59;51.53;;;48.60;;
52724;SDS011;38621;52.830;6.914;2024-03-06T13:16:26;56.60;;;53.28;;
52724;SDS011;38621;52.830;6.914;2024-03-06T13:18:51;60.08;;;56.95;;
52724;SDS011;38621;52.830;6.914;2024-03-06T13:21:20;49.30;;;46.35;;
52724;SDS011;38621;52.830;6.914;2024-03-06T13:23:45;93.85;;;89.45;;
52724;SDS011;38621;52.830;6.914;2024-03-06T13:26:11;65.28;;;61.88;;
52724;SDS011;38621;52.830;6.914;2024-03-06T13:28:38;93.88;;;89.70;;
52724;SDS011;38621;52.830;6.914;2024-03-06T13:31:04;60.25;;;56.95;;
52724;SDS011;38621;52.830;6.914;2024-03-06T13:33:33;54.22;;;51.08;;
52724;SDS011;38621;52.830;6.914;2024-03-06T13:35:59;66.78;;;63.38;;
52724;SDS011;38621;52.830;6.914;2024-03-06T13:38:24;78.90;;;75.20;;
52724;SDS011;38621;52.830;6.914;2024-03-06T13:40:50;78.70;;;74.93;;
52724;SDS011;38621;52.830;6.914;2024-03-06T13:43:16;75.82;;;71.97;;
52724;SDS011;38621;52.830;6.914;2024-03-06T13:45:48;82.32;;;78.22;;
52724;SDS011;38621;52.830;6.914;2024-03-06T13:48:18;92.63;;;88.43;;
52724;SDS011;38621;52.830;6.914;2024-03-06T13:50:44;91.50;;;87.00;;
52724;SDS011;38621;52.830;6.914;2024-03-06T13:53:10;98.90;;;94.65;;
52724;SDS011;38621;52.830;6.914;2024-03-06T13:55:36;82.82;;;79.03;;
52724;SDS011;38621;52.830;6.914;2024-03-06T13:58:02;78.30;;;74.40;;
52724;SDS011;38621;52.830;6.914;2024-03-06T14:00:28;79.65;;;75.88;;
52724;SDS011;38621;52.830;6.914;2024-03-06T14:02:54;75.57;;;71.95;;
52724;SDS011;38621;52.830;6.914;2024-03-06T14:05:20;70.63;;;67.20;;
52724;SDS011;38621;52.830;6.914;2024-03-06T14:07:53;70.30;;;66.88;;
52724;SDS011;38621;52.830;6.914;2024-03-06T14:10:20;82.70;;;78.70;;
52724;SDS011;38621;52.830;6.914;2024-03-06T14:12:48;72.80;;;69.35;;
52724;SDS011;38621;52.830;6.914;2024-03-06T14:15:17;75.40;;;71.88;;
52724;SDS011;38621;52.830;6.914;2024-03-06T14:17:44;74.90;;;71.28;;
52724;SDS011;38621;52.830;6.914;2024-03-06T14:20:10;79.05;;;75.53;;
52724;SDS011;38621;52.830;6.914;2024-03-06T14:22:40;75.97;;;72.07;;
52724;SDS011;38621;52.830;6.914;2024-03-06T14:25:07;60.08;;;56.85;;
52724;SDS011;38621;52.830;6.914;2024-03-06T14:27:33;71.50;;;67.80;;
52724;SDS011;38621;52.830;6.914;2024-03-06T14:30:00;73.72;;;70.15;;
52724;SDS011;38621;52.830;6.914;2024-03-06T14:32:27;85.15;;;81.30;;